createdAt,value
2022-08-26T00:00:18.779Z,21.77
2022-08-26T00:03:03.549Z,21.71
2022-08-26T00:05:48.396Z,21.70
2022-08-26T00:08:33.530Z,21.61
2022-08-26T00:11:26.609Z,21.60
2022-08-26T00:14:12.455Z,21.54
2022-08-26T00:16:58.363Z,21.51
2022-08-26T00:19:43.566Z,21.47
2022-08-26T00:22:28.336Z,21.49
2022-08-26T00:25:12.938Z,21.47
2022-08-26T00:27:57.738Z,21.43
2022-08-26T00:30:42.455Z,21.41
2022-08-26T00:33:27.374Z,21.38
2022-08-26T00:36:20.044Z,21.32
2022-08-26T00:39:05.446Z,21.36
2022-08-26T00:41:51.135Z,21.34
2022-08-26T00:44:36.566Z,21.30
2022-08-26T00:47:21.294Z,21.30
2022-08-26T00:50:06.190Z,21.29
2022-08-26T00:52:50.937Z,21.28
2022-08-26T00:55:38.018Z,21.27
2022-08-26T00:58:23.660Z,21.26
2022-08-26T01:01:08.373Z,21.21
2022-08-26T01:03:53.599Z,21.19
2022-08-26T01:06:40.229Z,21.17
2022-08-26T01:09:28.937Z,21.15
2022-08-26T01:12:14.688Z,21.15
2022-08-26T01:14:59.411Z,21.16
2022-08-26T01:17:44.245Z,21.18
2022-08-26T01:23:13.017Z,21.08
2022-08-26T01:29:01.531Z,21.12
2022-08-26T01:31:46.407Z,21.16
2022-08-26T01:34:31.476Z,21.12
2022-08-26T01:37:16.244Z,21.09
2022-08-26T01:40:01.018Z,21.09
2022-08-26T01:42:46.218Z,21.05
2022-08-26T01:45:32.340Z,21.08
2022-08-26T01:48:17.492Z,21.05
2022-08-26T01:51:02.286Z,21.07
2022-08-26T01:53:46.957Z,21.05
2022-08-26T01:56:33.382Z,20.98
2022-08-26T01:59:21.432Z,20.95
2022-08-26T02:02:06.589Z,20.92
2022-08-26T02:04:51.393Z,20.88
2022-08-26T02:07:36.697Z,20.92
2022-08-26T02:10:21.965Z,20.91
2022-08-26T02:13:06.958Z,20.90
2022-08-26T02:15:52.038Z,20.93
2022-08-26T02:18:36.900Z,20.94
2022-08-26T02:21:22.127Z,20.97
2022-08-26T02:24:09.873Z,20.99
2022-08-26T02:26:55.350Z,20.99
2022-08-26T02:29:40.993Z,20.96
2022-08-26T02:32:25.827Z,20.97
2022-08-26T02:35:11.950Z,20.98
2022-08-26T02:37:56.773Z,20.96
2022-08-26T02:40:43.175Z,20.96
2022-08-26T02:43:32.682Z,20.95
2022-08-26T02:46:27.603Z,20.91
2022-08-26T02:49:15.161Z,20.87
2022-08-26T02:51:59.962Z,20.83
2022-08-26T02:54:46.700Z,20.80
2022-08-26T02:57:34.415Z,20.78
2022-08-26T03:00:19.307Z,20.72
2022-08-26T03:03:04.120Z,20.67
2022-08-26T03:05:49.328Z,20.67
2022-08-26T03:08:34.166Z,20.67
2022-08-26T03:11:18.820Z,20.64
2022-08-26T03:14:03.877Z,20.65
2022-08-26T03:16:48.991Z,20.64
2022-08-26T03:19:33.774Z,20.62
2022-08-26T03:22:20.503Z,20.62
2022-08-26T03:25:05.287Z,20.60
2022-08-26T03:27:50.166Z,20.57
2022-08-26T03:30:34.863Z,20.55
2022-08-26T03:33:19.673Z,20.55
2022-08-26T03:36:04.367Z,20.54
2022-08-26T03:38:49.333Z,20.53
2022-08-26T03:41:34.099Z,20.49
2022-08-26T03:44:19.620Z,20.47
2022-08-26T03:47:04.219Z,20.47
2022-08-26T03:49:50.986Z,20.51
2022-08-26T03:52:39.634Z,20.50
2022-08-26T03:55:28.883Z,20.50
2022-08-26T03:58:13.526Z,20.51
2022-08-26T04:00:58.431Z,20.48
2022-08-26T04:03:43.201Z,20.55
2022-08-26T04:06:27.989Z,20.50
2022-08-26T04:09:12.668Z,20.57
2022-08-26T04:11:57.458Z,20.56
2022-08-26T04:14:42.146Z,20.60
2022-08-26T04:17:26.862Z,20.62
2022-08-26T04:20:11.753Z,20.62
2022-08-26T04:22:56.459Z,20.67
2022-08-26T04:25:42.339Z,20.62
2022-08-26T04:28:27.588Z,20.62
2022-08-26T04:31:12.531Z,20.67
2022-08-26T04:33:57.184Z,20.70
2022-08-26T04:36:42.052Z,20.63
2022-08-26T04:39:27.693Z,20.62
2022-08-26T04:42:13.040Z,20.58
2022-08-26T04:44:57.809Z,20.56
2022-08-26T04:47:42.726Z,20.50
2022-08-26T04:50:28.475Z,20.50
2022-08-26T04:53:13.652Z,20.50
2022-08-26T04:55:59.006Z,20.52
2022-08-26T04:58:43.977Z,20.62
2022-08-26T05:01:28.766Z,20.67
2022-08-26T05:04:16.323Z,20.67
2022-08-26T05:07:03.939Z,20.69
2022-08-26T05:09:48.612Z,20.66
2022-08-26T05:12:33.400Z,20.67
2022-08-26T05:15:17.966Z,20.69
2022-08-26T05:18:02.812Z,20.66
2022-08-26T05:20:47.609Z,20.63
2022-08-26T05:23:32.446Z,20.63
2022-08-26T05:26:17.142Z,20.61
2022-08-26T05:29:07.886Z,20.64
2022-08-26T05:31:52.711Z,20.70
2022-08-26T05:34:37.511Z,20.76
2022-08-26T05:37:23.329Z,20.80
2022-08-26T05:40:08.209Z,20.85
2022-08-26T05:42:53.367Z,20.98
2022-08-26T05:45:41.191Z,21.10
2022-08-26T05:48:29.991Z,21.16
2022-08-26T05:51:14.776Z,21.20
2022-08-26T05:53:59.552Z,21.27
2022-08-26T05:56:44.285Z,21.29
2022-08-26T05:59:31.104Z,21.33
2022-08-26T06:02:17.372Z,21.35
2022-08-26T06:05:02.613Z,21.38
2022-08-26T06:07:48.362Z,21.37
2022-08-26T06:10:33.280Z,21.36
2022-08-26T06:13:18.301Z,21.36
2022-08-26T06:16:03.252Z,21.41
2022-08-26T06:18:49.432Z,21.52
2022-08-26T06:21:34.268Z,21.61
2022-08-26T06:24:18.958Z,21.69
2022-08-26T06:27:04.156Z,21.75
2022-08-26T06:29:48.766Z,21.83
2022-08-26T06:32:33.440Z,21.87
2022-08-26T06:35:18.124Z,21.92
2022-08-26T06:38:03.429Z,21.96
2022-08-26T06:40:48.164Z,21.98
2022-08-26T06:43:33.451Z,22.02
2022-08-26T06:46:18.308Z,22.03
2022-08-26T06:49:02.980Z,22.01
2022-08-26T06:51:47.653Z,21.94
2022-08-26T06:54:33.765Z,21.87
2022-08-26T06:57:18.579Z,21.78
2022-08-26T07:00:03.317Z,21.58
2022-08-26T07:02:49.154Z,21.51
2022-08-26T07:05:34.296Z,21.52
2022-08-26T07:08:20.002Z,21.62
2022-08-26T07:11:04.708Z,21.71
2022-08-26T07:13:49.877Z,21.83
2022-08-26T07:16:37.170Z,21.93
2022-08-26T07:19:30.737Z,21.90
2022-08-26T07:22:16.827Z,21.84
2022-08-26T07:25:01.992Z,21.76
2022-08-26T07:27:54.482Z,21.66
2022-08-26T07:30:39.845Z,21.64
2022-08-26T07:33:25.671Z,21.56
2022-08-26T07:36:10.238Z,21.57
2022-08-26T07:38:55.538Z,21.31
2022-08-26T07:41:40.213Z,21.36
2022-08-26T07:44:25.077Z,21.40
2022-08-26T07:47:25.431Z,21.28
2022-08-26T07:50:11.154Z,21.33
2022-08-26T07:52:56.395Z,21.47
2022-08-26T07:55:41.035Z,21.74
2022-08-26T07:58:25.832Z,22.00
2022-08-26T08:01:11.161Z,22.12
2022-08-26T08:03:55.970Z,22.13
2022-08-26T08:06:40.758Z,22.34
2022-08-26T08:09:29.021Z,22.63
2022-08-26T08:12:14.229Z,23.10
2022-08-26T08:14:58.994Z,23.17
2022-08-26T08:17:44.405Z,23.17
2022-08-26T08:20:29.178Z,23.23
2022-08-26T08:23:14.300Z,23.12
2022-08-26T08:25:59.441Z,23.13
2022-08-26T08:28:45.285Z,23.21
2022-08-26T08:34:38.104Z,23.53
2022-08-26T08:37:22.816Z,23.77
2022-08-26T08:40:07.670Z,23.97
2022-08-26T08:45:38.163Z,23.90
2022-08-26T08:48:27.614Z,23.45
2022-08-26T08:51:13.043Z,23.34
2022-08-26T08:53:57.794Z,23.51
2022-08-26T08:56:42.547Z,23.57
2022-08-26T08:59:27.461Z,23.85
2022-08-26T09:02:12.166Z,24.13
2022-08-26T09:04:57.575Z,24.31
2022-08-26T09:07:42.580Z,24.36
2022-08-26T09:10:31.655Z,24.27
2022-08-26T09:13:16.962Z,24.21
2022-08-26T09:16:10.363Z,24.21
2022-08-26T09:18:55.691Z,24.11
2022-08-26T09:21:40.293Z,24.04
2022-08-26T09:24:28.347Z,23.91
2022-08-26T09:27:13.815Z,23.92
2022-08-26T09:29:58.483Z,23.69
2022-08-26T09:32:43.218Z,23.68
2022-08-26T09:35:41.108Z,23.83
2022-08-26T09:38:26.799Z,23.96
2022-08-26T09:41:13.053Z,23.91
2022-08-26T09:43:58.369Z,23.80
2022-08-26T09:46:42.958Z,23.75
2022-08-26T09:49:28.617Z,23.80
2022-08-26T09:52:16.714Z,23.76
2022-08-26T09:55:01.477Z,23.88
2022-08-26T09:57:48.197Z,23.85
2022-08-26T10:00:32.925Z,23.83
2022-08-26T10:03:18.350Z,23.92
2022-08-26T10:06:03.610Z,24.08
2022-08-26T10:08:48.342Z,24.10
2022-08-26T10:11:36.187Z,24.23
2022-08-26T10:14:20.933Z,24.38
2022-08-26T10:17:07.092Z,24.37
2022-08-26T10:19:57.237Z,24.38
2022-08-26T10:22:42.897Z,24.43
2022-08-26T10:25:28.589Z,24.47
2022-08-26T10:28:13.471Z,24.58
2022-08-26T10:30:58.178Z,24.61
2022-08-26T10:33:42.975Z,24.69
2022-08-26T10:36:27.668Z,24.73
2022-08-26T10:39:12.809Z,24.67
2022-08-26T10:41:59.089Z,24.58
2022-08-26T10:44:43.923Z,24.60
2022-08-26T10:47:29.123Z,24.62
2022-08-26T10:50:14.497Z,24.68
2022-08-26T10:52:59.237Z,24.62
2022-08-26T10:55:44.924Z,24.50
2022-08-26T10:58:30.768Z,24.41
2022-08-26T11:01:16.882Z,24.22
2022-08-26T11:04:07.551Z,24.02
2022-08-26T11:06:52.215Z,23.68
2022-08-26T11:09:37.021Z,23.52
2022-08-26T11:12:23.200Z,23.28
2022-08-26T11:15:08.177Z,23.31
2022-08-26T11:17:53.873Z,23.18
2022-08-26T11:20:41.922Z,23.08
2022-08-26T11:23:26.871Z,22.96
2022-08-26T11:26:11.518Z,22.73
2022-08-26T11:29:03.816Z,22.52
2022-08-26T11:31:49.137Z,22.55
2022-08-26T11:34:33.942Z,22.46
2022-08-26T11:40:05.622Z,22.34
2022-08-26T11:42:50.719Z,22.24
2022-08-26T11:45:35.517Z,22.34
2022-08-26T11:48:22.220Z,22.34
2022-08-26T11:51:08.786Z,22.43
2022-08-26T11:53:53.605Z,22.35
2022-08-26T11:56:38.412Z,22.24
2022-08-26T11:59:23.098Z,22.01
2022-08-26T12:02:08.430Z,21.80
2022-08-26T12:04:56.136Z,21.42
2022-08-26T12:07:42.740Z,21.02
2022-08-26T12:10:29.486Z,20.73
2022-08-26T12:13:14.403Z,20.27
2022-08-26T12:16:00.882Z,20.14
2022-08-26T12:18:45.443Z,20.23
2022-08-26T12:21:34.666Z,20.29
2022-08-26T12:24:20.389Z,20.40
2022-08-26T12:27:05.468Z,20.52
2022-08-26T12:29:50.690Z,20.67
2022-08-26T12:32:35.397Z,20.68
2022-08-26T12:35:20.624Z,20.75
2022-08-26T12:38:05.449Z,20.75
2022-08-26T12:40:50.266Z,20.83
2022-08-26T12:43:35.161Z,20.83
2022-08-26T12:46:19.838Z,20.86
2022-08-26T12:49:04.676Z,20.87
2022-08-26T12:51:49.423Z,20.88
2022-08-26T12:54:34.249Z,20.86
2022-08-26T12:57:18.934Z,20.82
2022-08-26T13:00:03.735Z,20.86
2022-08-26T13:02:48.498Z,20.88
2022-08-26T13:05:33.233Z,20.92
2022-08-26T13:08:18.077Z,20.93
2022-08-26T13:11:02.919Z,20.92
2022-08-26T13:13:47.716Z,20.97
2022-08-26T13:16:33.430Z,20.91
2022-08-26T13:19:18.159Z,20.70
2022-08-26T13:22:02.775Z,20.41
2022-08-26T13:24:47.623Z,20.33
2022-08-26T13:27:32.299Z,19.99
2022-08-26T13:30:17.162Z,19.81
2022-08-26T13:33:02.194Z,19.76
2022-08-26T13:35:48.617Z,19.72
2022-08-26T13:38:34.189Z,19.82
2022-08-26T13:41:19.038Z,19.97
2022-08-26T13:44:14.400Z,20.22
2022-08-26T13:46:59.242Z,20.39
2022-08-26T13:49:44.060Z,20.66
2022-08-26T13:52:31.732Z,20.72
2022-08-26T13:55:16.561Z,20.72
2022-08-26T13:58:01.242Z,20.56
2022-08-26T14:00:46.175Z,20.31
2022-08-26T14:03:31.922Z,19.97
2022-08-26T14:06:17.054Z,19.88
2022-08-26T14:09:01.959Z,20.00
2022-08-26T14:11:53.930Z,20.28
2022-08-26T14:14:39.559Z,20.40
2022-08-26T14:17:24.389Z,20.71
2022-08-26T14:20:09.093Z,20.93
2022-08-26T14:25:59.033Z,21.44
2022-08-26T14:28:43.740Z,21.61
2022-08-26T14:31:28.586Z,21.77
2022-08-26T14:34:13.255Z,21.92
2022-08-26T14:36:58.041Z,22.08
2022-08-26T14:39:51.919Z,22.17
2022-08-26T14:42:37.170Z,22.30
2022-08-26T14:45:23.472Z,22.44
2022-08-26T14:48:08.436Z,22.52
2022-08-26T14:50:53.512Z,22.60
2022-08-26T14:53:38.221Z,22.68
2022-08-26T14:56:23.111Z,22.72
2022-08-26T14:59:07.926Z,22.80
2022-08-26T15:01:52.968Z,22.78
2022-08-26T15:04:38.060Z,22.74
2022-08-26T15:07:22.927Z,22.60
2022-08-26T15:10:07.572Z,22.48
2022-08-26T15:12:52.481Z,21.93
2022-08-26T15:15:37.040Z,21.62
2022-08-26T15:18:21.950Z,21.38
2022-08-26T15:21:06.668Z,21.15
2022-08-26T15:23:51.554Z,21.17
2022-08-26T15:26:36.346Z,21.40
2022-08-26T15:29:21.002Z,21.52
2022-08-26T15:32:05.867Z,21.61
2022-08-26T15:34:50.615Z,21.68
2022-08-26T15:37:35.445Z,21.69
2022-08-26T15:40:20.150Z,21.78
2022-08-26T15:43:25.452Z,21.84
2022-08-26T15:46:11.958Z,21.86
2022-08-26T15:48:56.933Z,21.84
2022-08-26T15:51:45.456Z,21.82
2022-08-26T15:54:31.198Z,21.88
2022-08-26T15:57:18.731Z,21.88
2022-08-26T16:00:04.473Z,21.87
2022-08-26T16:02:49.671Z,21.87
2022-08-26T16:05:34.409Z,21.85
2022-08-26T16:08:19.218Z,21.82
2022-08-26T16:11:03.879Z,21.61
2022-08-26T16:13:48.713Z,21.64
2022-08-26T16:16:33.345Z,21.63
2022-08-26T16:19:18.146Z,21.64
2022-08-26T16:22:02.842Z,21.67
2022-08-26T16:24:47.622Z,21.73
2022-08-26T16:27:32.356Z,21.76
2022-08-26T16:30:17.155Z,21.72
2022-08-26T16:33:02.055Z,21.78
2022-08-26T16:35:46.859Z,21.71
2022-08-26T16:38:32.292Z,21.69
2022-08-26T16:41:16.920Z,21.64
2022-08-26T16:44:01.643Z,21.35
2022-08-26T16:46:46.432Z,21.18
2022-08-26T16:49:31.552Z,21.16
2022-08-26T16:52:16.430Z,21.16
2022-08-26T16:55:01.247Z,21.12
2022-08-26T16:57:46.104Z,21.21
2022-08-26T17:00:30.871Z,21.20
2022-08-26T17:03:15.736Z,21.03
2022-08-26T17:06:00.473Z,20.80
2022-08-26T17:08:45.407Z,20.66
2022-08-26T17:11:30.533Z,20.50
2022-08-26T17:14:15.247Z,20.45
2022-08-26T17:17:00.031Z,20.20
2022-08-26T17:19:47.254Z,20.06
2022-08-26T17:22:34.609Z,19.87
2022-08-26T17:25:19.573Z,19.78
2022-08-26T17:28:04.437Z,19.77
2022-08-26T17:30:57.852Z,19.85
2022-08-26T17:33:42.714Z,19.88
2022-08-26T17:36:28.395Z,19.93
2022-08-26T17:39:13.460Z,19.95
2022-08-26T17:41:58.111Z,19.99
2022-08-26T17:44:42.902Z,20.05
2022-08-26T17:47:27.692Z,20.06
2022-08-26T17:50:12.437Z,20.05
2022-08-26T17:52:57.293Z,20.00
2022-08-26T17:55:41.919Z,19.95
2022-08-26T17:58:30.454Z,19.97
2022-08-26T18:01:15.233Z,19.96
2022-08-26T18:04:00.881Z,19.95
2022-08-26T18:06:46.227Z,19.93
2022-08-26T18:09:31.014Z,19.90
2022-08-26T18:12:15.809Z,19.89
2022-08-26T18:15:00.520Z,19.84
2022-08-26T18:17:45.339Z,19.74
2022-08-26T18:20:30.023Z,19.52
2022-08-26T18:23:14.830Z,19.28
2022-08-26T18:25:59.501Z,19.11
2022-08-26T18:28:44.309Z,18.98
2022-08-26T18:31:29.233Z,18.90
2022-08-26T18:34:14.419Z,18.84
2022-08-26T18:36:59.219Z,18.69
2022-08-26T18:39:43.815Z,18.63
2022-08-26T18:42:28.658Z,18.69
2022-08-26T18:45:16.130Z,18.78
2022-08-26T18:48:01.393Z,18.86
2022-08-26T18:50:47.503Z,18.95
2022-08-26T18:53:32.293Z,18.97
2022-08-26T18:56:19.539Z,18.98
2022-08-26T18:59:04.280Z,18.98
2022-08-26T19:01:49.058Z,18.98
2022-08-26T19:04:35.588Z,18.98
2022-08-26T19:07:20.303Z,18.98
2022-08-26T19:10:05.334Z,18.97
2022-08-26T19:12:51.969Z,18.98
2022-08-26T19:15:36.996Z,18.98
2022-08-26T19:18:21.788Z,18.94
2022-08-26T19:21:06.362Z,18.87
2022-08-26T19:23:51.274Z,18.84
2022-08-26T19:26:35.950Z,18.79
2022-08-26T19:29:20.991Z,18.74
2022-08-26T19:32:05.613Z,18.67
2022-08-26T19:34:50.424Z,18.62
2022-08-26T19:37:35.134Z,18.61
2022-08-26T19:40:19.953Z,18.58
2022-08-26T19:43:04.694Z,18.50
2022-08-26T19:45:49.958Z,18.42
2022-08-26T19:48:34.770Z,18.35
2022-08-26T19:51:19.460Z,18.29
2022-08-26T19:54:04.446Z,18.21
2022-08-26T19:56:49.833Z,18.13
2022-08-26T19:59:34.963Z,18.09
2022-08-26T20:02:19.797Z,18.04
2022-08-26T20:05:05.047Z,17.92
2022-08-26T20:07:49.845Z,17.85
2022-08-26T20:10:34.623Z,17.82
2022-08-26T20:13:19.397Z,17.81
2022-08-26T20:16:04.133Z,17.81
2022-08-26T20:18:48.997Z,17.82
2022-08-26T20:21:33.726Z,17.86
2022-08-26T20:24:18.531Z,17.90
2022-08-26T20:27:07.282Z,17.87
2022-08-26T20:29:52.918Z,17.88
2022-08-26T20:32:37.719Z,17.94
2022-08-26T20:35:22.452Z,17.96
2022-08-26T20:38:07.195Z,17.88
2022-08-26T20:40:51.874Z,17.85
2022-08-26T20:43:41.188Z,17.84
2022-08-26T20:46:26.124Z,17.87
2022-08-26T20:49:11.181Z,17.84
2022-08-26T20:51:56.101Z,17.77
2022-08-26T20:54:40.788Z,17.70
2022-08-26T20:57:25.753Z,17.66
2022-08-26T21:00:10.523Z,17.61
2022-08-26T21:02:55.303Z,17.60
2022-08-26T21:05:40.151Z,17.55
2022-08-26T21:08:24.812Z,17.50
2022-08-26T21:11:10.170Z,17.42
2022-08-26T21:14:06.826Z,17.37
2022-08-26T21:17:00.845Z,17.31
2022-08-26T21:19:45.668Z,17.32
2022-08-26T21:22:30.402Z,17.30
2022-08-26T21:25:15.395Z,17.29
2022-08-26T21:28:00.136Z,17.27
2022-08-26T21:30:44.905Z,17.22
2022-08-26T21:33:29.634Z,17.17
2022-08-26T21:36:14.857Z,17.17
2022-08-26T21:38:59.587Z,17.14
2022-08-26T21:41:44.311Z,17.04
2022-08-26T21:44:29.199Z,17.01
2022-08-26T21:47:15.170Z,17.03
2022-08-26T21:50:00.046Z,16.99
2022-08-26T21:52:44.819Z,16.96
2022-08-26T21:55:29.908Z,16.93
2022-08-26T21:58:14.576Z,16.83
2022-08-26T22:00:59.614Z,16.76
2022-08-26T22:03:47.525Z,16.75
2022-08-26T22:06:32.754Z,16.73
2022-08-26T22:09:17.646Z,16.73
2022-08-26T22:12:02.310Z,16.77
2022-08-26T22:14:47.084Z,16.76
2022-08-26T22:17:31.785Z,16.74
2022-08-26T22:20:16.893Z,16.70
2022-08-26T22:23:01.770Z,16.70
2022-08-26T22:25:46.520Z,16.68
2022-08-26T22:28:31.239Z,16.66
2022-08-26T22:31:16.018Z,16.60
2022-08-26T22:34:00.834Z,16.59
2022-08-26T22:36:45.716Z,16.53
2022-08-26T22:39:30.461Z,16.51
2022-08-26T22:42:15.259Z,16.53
2022-08-26T22:45:00.067Z,16.51
2022-08-26T22:47:45.494Z,16.50
2022-08-26T22:50:30.159Z,16.43
2022-08-26T22:53:15.051Z,16.41
2022-08-26T22:55:59.769Z,16.48
2022-08-26T22:58:45.620Z,16.48
2022-08-26T23:01:30.611Z,16.49
2022-08-26T23:04:15.919Z,16.49
2022-08-26T23:07:00.793Z,16.48
2022-08-26T23:09:45.592Z,16.41
2022-08-26T23:12:30.566Z,16.39
2022-08-26T23:15:15.272Z,16.41
2022-08-26T23:18:03.307Z,16.39
2022-08-26T23:20:47.993Z,16.45
2022-08-26T23:23:32.806Z,16.41
2022-08-26T23:26:17.916Z,16.37
2022-08-26T23:29:03.006Z,16.35
2022-08-26T23:31:48.064Z,16.33
2022-08-26T23:34:33.300Z,16.31
2022-08-26T23:37:18.108Z,16.25
2022-08-26T23:40:03.966Z,16.26
2022-08-26T23:42:49.334Z,16.34
2022-08-26T23:45:34.214Z,16.28
2022-08-26T23:48:19.531Z,16.27
2022-08-26T23:51:04.823Z,16.23
2022-08-26T23:53:49.563Z,16.23
2022-08-26T23:56:34.453Z,16.27
2022-08-26T23:59:19.283Z,16.26
